createdAt,value
2019-05-19T00:01:23.994Z,68.30
2019-05-19T00:03:59.892Z,66.01
2019-05-19T00:06:34.587Z,64.74
2019-05-19T00:09:06.416Z,64.28
2019-05-19T00:11:41.244Z,65.31
2019-05-19T00:14:15.078Z,65.27
2019-05-19T00:16:48.253Z,64.77
2019-05-19T00:19:26.898Z,64.59
2019-05-19T00:21:59.086Z,65.84
2019-05-19T00:24:32.208Z,67.01
2019-05-19T00:27:05.612Z,68.26
2019-05-19T00:29:38.144Z,68.97
2019-05-19T00:32:09.350Z,69.38
2019-05-19T00:34:41.126Z,70.00
2019-05-19T00:37:17.640Z,70.58
2019-05-19T00:39:49.157Z,72.39
2019-05-19T00:42:21.654Z,75.46
2019-05-19T00:44:54.237Z,77.75
2019-05-19T00:47:27.493Z,78.87
2019-05-19T00:50:01.880Z,79.51
2019-05-19T00:52:44.315Z,79.82
2019-05-19T00:55:18.021Z,80.09
2019-05-19T00:57:49.622Z,79.90
2019-05-19T01:00:22.358Z,80.22
2019-05-19T01:02:56.950Z,76.61
2019-05-19T01:05:30.185Z,74.33
2019-05-19T01:08:02.218Z,73.30
2019-05-19T01:10:37.954Z,72.07
2019-05-19T01:13:14.002Z,71.24
2019-05-19T01:15:47.075Z,72.28
2019-05-19T01:18:19.878Z,72.65
2019-05-19T01:20:51.793Z,71.95
2019-05-19T01:23:24.293Z,70.24
2019-05-19T01:25:58.324Z,68.95
2019-05-19T01:28:30.561Z,67.90
2019-05-19T01:31:03.523Z,67.51
2019-05-19T01:33:38.941Z,67.76
2019-05-19T01:36:14.725Z,67.70
2019-05-19T01:38:49.168Z,66.94
2019-05-19T01:41:22.316Z,65.88
2019-05-19T01:43:56.453Z,65.38
2019-05-19T01:46:31.802Z,64.78
2019-05-19T01:49:05.859Z,64.78
2019-05-19T01:51:38.486Z,65.29
2019-05-19T01:54:11.684Z,65.72
2019-05-19T01:56:44.796Z,65.80
2019-05-19T01:59:17.474Z,66.52
2019-05-19T02:01:50.807Z,70.35
2019-05-19T02:04:24.891Z,70.92
2019-05-19T02:06:58.051Z,72.46
2019-05-19T02:09:30.774Z,72.87
2019-05-19T02:12:04.265Z,75.30
2019-05-19T02:14:38.560Z,75.33
2019-05-19T02:17:10.579Z,75.96
2019-05-19T02:19:42.770Z,75.10
2019-05-19T02:22:15.376Z,71.68
2019-05-19T02:24:47.545Z,68.80
2019-05-19T02:27:21.082Z,67.60
2019-05-19T02:29:54.898Z,67.21
2019-05-19T02:32:26.554Z,66.95
2019-05-19T02:35:00.893Z,66.13
2019-05-19T02:37:43.968Z,65.58
2019-05-19T02:40:18.322Z,65.17
2019-05-19T02:42:54.184Z,64.73
2019-05-19T02:45:28.403Z,68.58
2019-05-19T02:48:04.721Z,69.81
2019-05-19T02:50:51.825Z,69.90
2019-05-19T02:53:20.029Z,67.98
2019-05-19T02:55:53.799Z,68.07
2019-05-19T02:58:27.002Z,68.75
2019-05-19T03:01:00.146Z,70.75
2019-05-19T03:03:33.366Z,72.84
2019-05-19T03:06:05.288Z,73.58
2019-05-19T03:08:39.969Z,75.03
2019-05-19T03:11:13.227Z,76.09
2019-05-19T03:13:46.136Z,76.85
2019-05-19T03:16:17.885Z,76.69
2019-05-19T03:18:51.617Z,76.51
2019-05-19T03:21:25.686Z,77.00
2019-05-19T03:23:56.990Z,78.10
2019-05-19T03:26:29.894Z,78.30
2019-05-19T03:29:02.961Z,77.75
2019-05-19T03:31:41.708Z,76.67
2019-05-19T03:34:16.668Z,76.46
2019-05-19T03:36:49.016Z,76.07
2019-05-19T03:39:23.063Z,76.59
2019-05-19T03:41:57.651Z,77.36
2019-05-19T03:44:29.258Z,76.56
2019-05-19T03:47:03.388Z,76.86
2019-05-19T03:49:34.969Z,77.34
2019-05-19T03:52:06.201Z,78.28
2019-05-19T03:54:39.873Z,79.04
2019-05-19T03:57:11.882Z,77.18
2019-05-19T03:59:44.755Z,77.55
2019-05-19T04:02:16.940Z,76.28
2019-05-19T04:04:49.938Z,75.71
2019-05-19T04:07:23.867Z,75.48
2019-05-19T04:09:55.101Z,76.53
2019-05-19T04:12:26.324Z,77.74
2019-05-19T04:15:00.005Z,77.93
2019-05-19T04:17:45.264Z,77.53
2019-05-19T04:20:18.661Z,76.48
2019-05-19T04:22:51.054Z,76.43
2019-05-19T04:25:27.301Z,74.98
2019-05-19T04:28:01.076Z,73.71
2019-05-19T04:30:35.615Z,73.74
2019-05-19T04:33:09.067Z,73.95
2019-05-19T04:35:41.359Z,73.77
2019-05-19T04:38:17.210Z,72.54
2019-05-19T04:40:49.331Z,71.26
2019-05-19T04:43:21.415Z,70.46
2019-05-19T04:45:56.163Z,70.14
2019-05-19T04:48:32.062Z,70.64
2019-05-19T04:51:04.618Z,72.07
2019-05-19T04:53:36.336Z,72.16
2019-05-19T04:56:10.909Z,71.63
2019-05-19T04:58:42.553Z,70.91
2019-05-19T05:01:18.274Z,70.29
2019-05-19T05:03:52.907Z,69.05
2019-05-19T05:06:24.673Z,69.09
2019-05-19T05:08:58.450Z,69.32
2019-05-19T05:11:30.594Z,72.90
2019-05-19T05:14:05.706Z,72.48
2019-05-19T05:16:38.336Z,71.06
2019-05-19T05:19:15.032Z,69.54
2019-05-19T05:21:48.923Z,67.61
2019-05-19T05:24:21.516Z,69.76
2019-05-19T05:26:54.455Z,68.73
2019-05-19T05:29:27.520Z,68.03
2019-05-19T05:32:02.513Z,67.37
2019-05-19T05:34:36.932Z,69.83
2019-05-19T05:37:10.289Z,68.82
2019-05-19T05:39:42.181Z,66.48
2019-05-19T05:42:15.703Z,64.47
2019-05-19T05:44:49.539Z,63.84
2019-05-19T05:47:23.290Z,65.23
2019-05-19T05:49:57.512Z,63.73
2019-05-19T05:52:38.667Z,62.92
2019-05-19T05:55:17.036Z,67.19
2019-05-19T05:57:49.337Z,66.51
2019-05-19T06:00:23.721Z,65.85
2019-05-19T06:02:56.433Z,65.83
2019-05-19T06:05:29.698Z,64.71
2019-05-19T06:08:02.596Z,64.31
2019-05-19T06:10:35.058Z,63.72
2019-05-19T06:13:06.842Z,64.69
2019-05-19T06:15:39.719Z,64.95
2019-05-19T06:18:13.598Z,64.13
2019-05-19T06:20:46.155Z,64.55
2019-05-19T06:23:18.674Z,64.23
2019-05-19T06:25:51.822Z,65.58
2019-05-19T06:28:25.109Z,64.63
2019-05-19T06:30:56.858Z,64.81
2019-05-19T06:33:31.545Z,65.87
2019-05-19T06:36:07.502Z,63.91
2019-05-19T06:38:38.936Z,64.08
2019-05-19T06:41:15.135Z,64.75
2019-05-19T06:43:48.162Z,65.11
2019-05-19T06:46:22.710Z,63.10
2019-05-19T06:48:57.040Z,61.76
2019-05-19T06:51:33.276Z,62.55
2019-05-19T06:54:05.967Z,64.26
2019-05-19T06:56:38.830Z,62.88
2019-05-19T06:59:11.914Z,62.54
2019-05-19T07:01:45.056Z,62.35
2019-05-19T07:04:18.176Z,61.77
2019-05-19T07:06:51.345Z,61.59
2019-05-19T07:09:25.697Z,61.07
2019-05-19T07:12:01.762Z,61.49
2019-05-19T07:14:33.550Z,60.97
2019-05-19T07:17:05.914Z,61.40
2019-05-19T07:19:39.953Z,61.96
2019-05-19T07:22:12.022Z,61.02
2019-05-19T07:24:45.168Z,60.18
2019-05-19T07:27:19.894Z,59.52
2019-05-19T07:29:53.173Z,60.87
2019-05-19T07:32:28.860Z,60.34
2019-05-19T07:35:03.266Z,59.62
2019-05-19T07:37:49.621Z,57.70
2019-05-19T07:40:21.061Z,56.78
2019-05-19T07:42:54.053Z,55.62
2019-05-19T07:45:27.010Z,56.02
2019-05-19T07:47:59.896Z,55.88
2019-05-19T07:50:38.122Z,56.69
2019-05-19T07:53:13.901Z,56.43
2019-05-19T07:55:48.074Z,55.69
2019-05-19T07:58:21.957Z,56.32
2019-05-19T08:00:55.151Z,56.37
2019-05-19T08:03:27.183Z,56.38
2019-05-19T08:06:01.081Z,55.38
2019-05-19T08:08:33.358Z,55.89
2019-05-19T08:11:06.794Z,54.83
2019-05-19T08:13:41.197Z,57.82
2019-05-19T08:16:15.557Z,58.82
2019-05-19T08:18:49.858Z,57.38
2019-05-19T08:21:21.347Z,56.29
2019-05-19T08:24:00.262Z,56.70
2019-05-19T08:26:29.615Z,55.64
2019-05-19T08:29:07.923Z,57.80
2019-05-19T08:31:42.152Z,57.28
2019-05-19T08:34:16.566Z,57.25
2019-05-19T08:36:48.598Z,58.00
2019-05-19T08:39:23.226Z,58.17
2019-05-19T08:41:56.554Z,57.81
2019-05-19T08:44:29.481Z,59.18
2019-05-19T08:47:03.374Z,61.28
2019-05-19T08:49:37.482Z,60.15
2019-05-19T08:52:11.343Z,59.40
2019-05-19T08:54:44.800Z,58.74
2019-05-19T08:57:18.537Z,55.94
2019-05-19T08:59:52.918Z,54.79
2019-05-19T09:02:26.427Z,56.25
2019-05-19T09:05:14.025Z,55.45
2019-05-19T09:07:48.749Z,54.85
2019-05-19T09:10:21.522Z,55.96
2019-05-19T09:12:56.637Z,55.84
2019-05-19T09:15:30.644Z,57.36
2019-05-19T09:18:09.859Z,56.25
2019-05-19T09:20:46.012Z,55.88
2019-05-19T09:23:20.067Z,54.33
2019-05-19T09:25:53.089Z,54.47
2019-05-19T09:28:25.668Z,54.36
2019-05-19T09:30:58.660Z,58.18
2019-05-19T09:33:30.817Z,55.82
2019-05-19T09:36:03.647Z,55.75
2019-05-19T09:38:36.721Z,56.74
2019-05-19T09:41:10.407Z,58.45
2019-05-19T09:43:48.149Z,57.66
2019-05-19T09:46:21.894Z,57.50
2019-05-19T09:49:13.569Z,56.78
2019-05-19T09:51:46.127Z,56.12
2019-05-19T09:54:20.126Z,55.16
2019-05-19T09:56:52.421Z,56.12
2019-05-19T09:59:24.812Z,58.70
2019-05-19T10:01:58.535Z,57.26
2019-05-19T10:04:30.334Z,56.35
2019-05-19T10:07:05.622Z,56.14
2019-05-19T10:10:17.304Z,57.36
2019-05-19T10:12:50.513Z,57.22
2019-05-19T10:15:21.831Z,58.39
2019-05-19T10:17:54.873Z,58.34
2019-05-19T10:20:29.673Z,57.47
2019-05-19T10:23:02.054Z,57.26
2019-05-19T10:25:39.296Z,56.78
2019-05-19T10:28:47.068Z,57.45
2019-05-19T10:31:19.797Z,58.10
2019-05-19T10:33:55.233Z,59.07
2019-05-19T10:36:29.660Z,56.47
2019-05-19T10:39:05.919Z,56.48
2019-05-19T10:41:40.399Z,57.18
2019-05-19T10:44:12.920Z,57.64
2019-05-19T10:46:47.045Z,57.27
2019-05-19T10:49:21.019Z,57.18
2019-05-19T10:51:53.126Z,57.16
2019-05-19T10:54:25.286Z,59.12
2019-05-19T10:56:59.957Z,57.16
2019-05-19T10:59:33.248Z,55.97
2019-05-19T11:02:05.186Z,54.48
2019-05-19T11:04:40.677Z,53.65
2019-05-19T11:07:12.991Z,54.68
2019-05-19T11:09:48.512Z,54.54
2019-05-19T11:12:21.921Z,56.32
2019-05-19T11:14:55.838Z,56.39
2019-05-19T11:17:29.057Z,54.79
2019-05-19T11:20:02.172Z,57.24
2019-05-19T11:22:44.528Z,56.18
2019-05-19T11:25:31.584Z,53.85
2019-05-19T11:27:53.606Z,54.46
2019-05-19T11:30:27.143Z,53.08
2019-05-19T11:33:00.172Z,52.44
2019-05-19T11:35:34.863Z,51.32
2019-05-19T11:38:06.272Z,52.37
2019-05-19T11:40:40.967Z,50.79
2019-05-19T11:43:16.841Z,49.72
2019-05-19T11:45:50.370Z,48.73
2019-05-19T11:48:24.571Z,48.69
2019-05-19T11:50:57.679Z,47.22
2019-05-19T11:53:30.446Z,47.28
2019-05-19T11:56:06.717Z,46.87
2019-05-19T11:58:36.395Z,46.92
2019-05-19T12:01:10.644Z,47.29
2019-05-19T12:04:02.441Z,47.36
2019-05-19T12:07:09.771Z,46.70
2019-05-19T12:09:43.540Z,46.14
2019-05-19T12:12:17.239Z,45.94
2019-05-19T12:15:01.084Z,47.06
2019-05-19T12:17:42.860Z,47.68
2019-05-19T12:20:26.666Z,48.93
2019-05-19T12:23:12.907Z,49.12
2019-05-19T12:25:47.417Z,48.75
2019-05-19T12:28:35.343Z,48.33
2019-05-19T12:31:07.928Z,48.96
2019-05-19T12:33:52.400Z,48.48
2019-05-19T12:36:24.693Z,47.86
2019-05-19T12:38:57.763Z,47.46
2019-05-19T12:41:39.018Z,48.29
2019-05-19T12:44:13.920Z,47.25
2019-05-19T12:46:48.492Z,47.42
2019-05-19T12:49:20.332Z,47.87
2019-05-19T12:54:38.332Z,47.08
2019-05-19T12:57:12.622Z,47.05
2019-05-19T12:59:50.470Z,46.46
2019-05-19T13:02:23.226Z,46.12
2019-05-19T13:05:04.988Z,45.66
2019-05-19T13:07:32.056Z,44.87
2019-05-19T13:10:15.370Z,45.32
2019-05-19T13:12:49.613Z,45.63
2019-05-19T13:15:20.923Z,45.19
2019-05-19T13:17:56.664Z,45.11
2019-05-19T13:20:28.510Z,44.46
2019-05-19T13:23:00.728Z,44.90
2019-05-19T13:25:37.567Z,43.95
2019-05-19T13:28:09.808Z,43.69
2019-05-19T13:30:43.811Z,44.80
2019-05-19T13:33:15.360Z,43.76
2019-05-19T13:35:48.812Z,43.18
2019-05-19T13:38:23.482Z,43.53
2019-05-19T13:40:55.784Z,43.73
2019-05-19T13:43:30.900Z,43.64
2019-05-19T13:46:03.055Z,44.06
2019-05-19T13:48:36.846Z,45.31
2019-05-19T13:51:11.264Z,45.97
2019-05-19T13:53:43.936Z,46.39
2019-05-19T13:56:18.390Z,47.01
2019-05-19T13:58:52.121Z,46.53
2019-05-19T14:01:28.703Z,46.58
2019-05-19T14:04:05.123Z,47.13
2019-05-19T14:06:39.140Z,46.26
2019-05-19T14:09:15.300Z,46.08
2019-05-19T14:11:48.373Z,47.40
2019-05-19T14:14:22.553Z,47.05
2019-05-19T14:16:55.735Z,46.83
2019-05-19T14:19:31.047Z,48.15
2019-05-19T14:22:07.780Z,47.72
2019-05-19T14:24:41.965Z,46.05
2019-05-19T14:27:29.238Z,46.21
2019-05-19T14:29:52.815Z,44.62
2019-05-19T14:32:26.250Z,45.76
2019-05-19T14:35:17.166Z,46.98
2019-05-19T14:37:53.618Z,46.93
2019-05-19T14:40:25.123Z,47.60
2019-05-19T14:43:03.626Z,48.48
2019-05-19T14:45:35.661Z,47.97
2019-05-19T14:48:07.366Z,48.76
2019-05-19T14:50:39.214Z,48.68
2019-05-19T14:53:12.658Z,49.02
2019-05-19T14:55:47.162Z,49.40
2019-05-19T14:58:19.064Z,50.60
2019-05-19T15:00:54.218Z,49.62
2019-05-19T15:03:27.943Z,51.39
2019-05-19T15:06:01.324Z,52.99
2019-05-19T15:08:37.585Z,54.02
2019-05-19T15:11:13.332Z,54.86
2019-05-19T15:13:49.051Z,54.79
2019-05-19T15:16:23.066Z,56.74
2019-05-19T15:18:56.772Z,56.92
2019-05-19T15:21:31.947Z,57.12
2019-05-19T15:24:05.470Z,54.53
2019-05-19T15:26:40.787Z,55.09
2019-05-19T15:29:14.588Z,55.50
2019-05-19T15:31:46.309Z,55.74
2019-05-19T15:34:19.687Z,56.29
2019-05-19T15:36:56.752Z,57.16
2019-05-19T15:39:29.422Z,57.52
2019-05-19T15:42:03.496Z,59.12
2019-05-19T15:44:36.139Z,60.05
2019-05-19T15:47:11.306Z,61.38
2019-05-19T15:49:43.374Z,61.34
2019-05-19T15:52:15.389Z,61.30
2019-05-19T15:54:47.589Z,60.97
2019-05-19T15:57:18.902Z,60.92
2019-05-19T15:59:52.333Z,60.52
2019-05-19T16:02:25.490Z,59.30
2019-05-19T16:05:01.033Z,59.94
2019-05-19T16:07:35.623Z,59.53
2019-05-19T16:10:18.025Z,59.39
2019-05-19T16:12:50.748Z,59.92
2019-05-19T16:15:23.510Z,59.44
2019-05-19T16:17:56.792Z,59.90
2019-05-19T16:20:33.059Z,60.72
2019-05-19T16:23:05.956Z,59.86
2019-05-19T16:25:39.857Z,59.52
2019-05-19T16:28:12.373Z,60.78
2019-05-19T16:30:45.669Z,59.04
2019-05-19T16:33:18.811Z,59.32
2019-05-19T16:35:53.790Z,59.77
2019-05-19T16:38:26.111Z,59.57
2019-05-19T16:40:57.606Z,59.86
2019-05-19T16:43:29.929Z,59.77
2019-05-19T16:46:04.299Z,60.16
2019-05-19T16:48:39.878Z,60.51
2019-05-19T16:51:15.159Z,60.71
2019-05-19T16:53:49.956Z,61.16
2019-05-19T16:56:23.766Z,61.08
2019-05-19T16:58:56.931Z,60.86
2019-05-19T17:01:31.339Z,60.54
2019-05-19T17:04:02.674Z,60.78
2019-05-19T17:06:37.913Z,61.65
2019-05-19T17:09:10.017Z,61.53
2019-05-19T17:11:44.297Z,61.92
2019-05-19T17:14:17.970Z,61.10
2019-05-19T17:16:52.869Z,62.08
2019-05-19T17:19:25.856Z,62.41
2019-05-19T17:22:00.688Z,62.12
2019-05-19T17:24:36.478Z,62.69
2019-05-19T17:27:12.323Z,62.64
2019-05-19T17:29:46.637Z,63.09
2019-05-19T17:32:22.866Z,63.33
2019-05-19T17:34:57.179Z,63.91
2019-05-19T17:37:31.086Z,62.97
2019-05-19T17:40:17.034Z,62.92
2019-05-19T17:42:50.310Z,62.79
2019-05-19T17:45:25.965Z,62.43
2019-05-19T17:48:10.141Z,62.58
2019-05-19T17:50:40.180Z,62.12
2019-05-19T17:53:13.662Z,62.90
2019-05-19T17:55:48.325Z,62.91
2019-05-19T17:58:24.109Z,62.69
2019-05-19T18:01:00.723Z,63.16
2019-05-19T18:03:36.454Z,63.11
2019-05-19T18:06:12.580Z,63.55
2019-05-19T18:08:46.749Z,64.18
2019-05-19T18:11:21.000Z,65.18
2019-05-19T18:13:54.007Z,65.60
2019-05-19T18:16:30.488Z,65.68
2019-05-19T18:19:05.656Z,66.01
2019-05-19T18:21:38.229Z,67.04
2019-05-19T18:24:11.594Z,67.20
2019-05-19T18:26:46.799Z,66.76
2019-05-19T18:29:31.047Z,66.80
2019-05-19T18:31:57.891Z,66.76
2019-05-19T18:34:32.179Z,66.76
2019-05-19T18:37:06.354Z,67.56
2019-05-19T18:39:39.705Z,67.67
2019-05-19T18:42:13.311Z,67.85
2019-05-19T18:44:47.211Z,68.12
2019-05-19T18:47:20.459Z,68.41
2019-05-19T18:49:55.299Z,68.90
2019-05-19T18:52:47.362Z,68.86
2019-05-19T18:55:19.990Z,69.23
2019-05-19T18:57:53.658Z,68.37
2019-05-19T19:00:37.449Z,68.43
2019-05-19T19:03:10.837Z,69.42
2019-05-19T19:05:42.638Z,70.12
2019-05-19T19:08:18.304Z,69.50
2019-05-19T19:10:51.309Z,68.78
2019-05-19T19:13:23.462Z,68.79
2019-05-19T19:15:55.727Z,67.42
2019-05-19T19:18:28.629Z,67.07
2019-05-19T19:21:03.633Z,66.75
2019-05-19T19:23:38.482Z,65.81
2019-05-19T19:26:22.036Z,64.66
2019-05-19T19:29:06.744Z,63.90
2019-05-19T19:31:48.069Z,63.36
2019-05-19T19:34:13.943Z,63.45
2019-05-19T19:36:48.197Z,63.96
2019-05-19T19:39:21.813Z,66.61
2019-05-19T19:41:55.057Z,65.04
2019-05-19T19:44:27.933Z,65.58
2019-05-19T19:46:59.510Z,67.02
2019-05-19T19:49:34.415Z,66.49
2019-05-19T19:52:07.016Z,66.80
2019-05-19T19:54:39.573Z,69.98
2019-05-19T19:57:13.823Z,71.57
2019-05-19T19:59:46.610Z,70.59
2019-05-19T20:02:18.127Z,68.75
2019-05-19T20:04:51.669Z,67.07
2019-05-19T20:07:25.119Z,67.54
2019-05-19T20:09:58.920Z,70.70
2019-05-19T20:12:43.612Z,71.79
2019-05-19T20:15:20.079Z,73.82
2019-05-19T20:17:52.023Z,75.37
2019-05-19T20:20:25.627Z,76.16
2019-05-19T20:22:58.881Z,76.52
2019-05-19T20:25:37.140Z,76.21
2019-05-19T20:28:09.906Z,75.64
2019-05-19T20:30:42.879Z,75.90
2019-05-19T20:33:18.660Z,74.16
2019-05-19T20:35:52.999Z,74.01
2019-05-19T20:38:27.333Z,73.41
2019-05-19T20:41:03.023Z,73.78
2019-05-19T20:43:38.256Z,73.49
2019-05-19T20:46:11.589Z,73.19
2019-05-19T20:48:47.016Z,72.84
2019-05-19T20:51:22.562Z,72.17
2019-05-19T20:53:54.797Z,70.56
2019-05-19T20:56:30.506Z,70.22
2019-05-19T20:59:02.320Z,70.59
2019-05-19T21:01:35.858Z,70.50
2019-05-19T21:04:07.278Z,70.65
2019-05-19T21:06:42.607Z,70.47
2019-05-19T21:09:17.172Z,69.32
2019-05-19T21:11:49.857Z,69.19
2019-05-19T21:14:23.826Z,67.75
2019-05-19T21:16:58.899Z,67.65
2019-05-19T21:19:32.200Z,67.38
2019-05-19T21:22:05.184Z,65.62
2019-05-19T21:24:37.943Z,65.84
2019-05-19T21:27:09.387Z,67.89
2019-05-19T21:29:44.286Z,65.99
2019-05-19T21:32:16.103Z,64.26
2019-05-19T21:34:52.147Z,62.99
2019-05-19T21:37:27.905Z,62.10
2019-05-19T21:40:01.937Z,66.04
2019-05-19T21:42:44.182Z,63.95
2019-05-19T21:45:17.441Z,63.41
2019-05-19T21:47:49.969Z,63.06
2019-05-19T21:50:23.997Z,62.51
2019-05-19T21:52:57.009Z,62.22
2019-05-19T21:55:30.878Z,62.59
2019-05-19T21:58:04.057Z,62.75
2019-05-19T22:00:39.755Z,62.58
2019-05-19T22:03:14.199Z,62.10
2019-05-19T22:05:53.436Z,61.52
2019-05-19T22:08:23.752Z,61.03
2019-05-19T22:10:56.209Z,60.80
2019-05-19T22:13:29.000Z,61.19
2019-05-19T22:16:12.285Z,62.42
2019-05-19T22:18:36.825Z,62.29
2019-05-19T22:21:11.996Z,63.41
2019-05-19T22:23:46.099Z,64.74
2019-05-19T22:26:19.701Z,64.48
2019-05-19T22:28:53.419Z,63.71
2019-05-19T22:31:36.182Z,62.88
2019-05-19T22:34:03.206Z,63.98
2019-05-19T22:36:36.588Z,64.14
2019-05-19T22:39:10.415Z,63.61
2019-05-19T22:41:42.018Z,62.90
2019-05-19T22:44:16.675Z,62.90
2019-05-19T22:46:49.787Z,62.48
2019-05-19T22:49:22.493Z,61.92
2019-05-19T22:51:54.532Z,61.25
2019-05-19T22:54:29.237Z,60.82
2019-05-19T22:57:01.818Z,60.56
2019-05-19T22:59:33.236Z,60.26
2019-05-19T23:02:09.189Z,60.15
2019-05-19T23:04:40.122Z,60.71
2019-05-19T23:07:14.402Z,63.07
2019-05-19T23:09:49.520Z,65.53
2019-05-19T23:12:21.210Z,65.07
2019-05-19T23:14:53.112Z,64.92
2019-05-19T23:17:27.396Z,64.62
2019-05-19T23:19:58.902Z,63.71
2019-05-19T23:22:31.390Z,66.89
2019-05-19T23:25:15.588Z,72.00
2019-05-19T23:27:47.807Z,75.00
2019-05-19T23:30:19.871Z,74.08
2019-05-19T23:32:53.624Z,74.62
2019-05-19T23:35:29.345Z,75.77
2019-05-19T23:38:03.718Z,76.68
2019-05-19T23:40:37.352Z,78.53
2019-05-19T23:43:10.826Z,78.76
2019-05-19T23:45:46.801Z,79.01
2019-05-19T23:48:19.577Z,79.21
2019-05-19T23:50:52.558Z,79.14
2019-05-19T23:53:24.751Z,79.65
2019-05-19T23:55:58.599Z,79.34
2019-05-19T23:58:31.861Z,78.50
